createdAt,value
2023-03-29T00:01:52.643Z,1.73
2023-03-29T00:04:42.774Z,1.57
2023-03-29T00:07:33.922Z,1.53
2023-03-29T00:10:23.905Z,1.90
2023-03-29T00:13:12.412Z,1.80
2023-03-29T00:16:00.884Z,1.50
2023-03-29T00:18:51.553Z,1.87
2023-03-29T00:21:41.379Z,1.63
2023-03-29T00:24:29.873Z,1.90
2023-03-29T00:27:18.480Z,1.33
2023-03-29T00:30:10.030Z,1.53
2023-03-29T00:32:58.647Z,1.50
2023-03-29T00:35:48.322Z,1.60
2023-03-29T00:38:38.868Z,1.83
2023-03-29T00:41:27.451Z,1.80
2023-03-29T00:45:01.960Z,1.60
2023-03-29T00:47:55.511Z,1.70
2023-03-29T00:50:50.195Z,1.33
2023-03-29T00:53:48.345Z,1.30
2023-03-29T00:56:41.433Z,1.50
2023-03-29T00:59:35.474Z,1.47
2023-03-29T01:02:34.485Z,1.30
2023-03-29T01:05:30.849Z,1.40
2023-03-29T01:08:26.568Z,1.53
2023-03-29T01:11:23.528Z,1.30
2023-03-29T01:14:17.457Z,1.47
2023-03-29T01:17:07.156Z,1.50
2023-03-29T01:20:08.296Z,1.70
2023-03-29T01:23:19.301Z,1.93
2023-03-29T01:26:24.937Z,1.77
2023-03-29T01:29:23.361Z,1.43
2023-03-29T01:32:19.165Z,1.70
2023-03-29T01:35:14.314Z,1.90
2023-03-29T01:38:09.697Z,1.37
2023-03-29T01:40:58.454Z,1.63
2023-03-29T01:43:53.871Z,2.00
2023-03-29T01:46:48.670Z,1.40
2023-03-29T01:49:43.140Z,1.80
2023-03-29T01:52:37.429Z,1.40
2023-03-29T01:55:32.398Z,1.67
2023-03-29T01:58:26.695Z,1.70
2023-03-29T02:01:22.988Z,1.30
2023-03-29T02:04:17.604Z,1.47
2023-03-29T02:07:10.496Z,1.40
2023-03-29T02:10:00.458Z,1.23
2023-03-29T02:12:49.028Z,1.50
2023-03-29T02:15:37.541Z,1.40
2023-03-29T02:18:26.599Z,1.50
2023-03-29T02:21:22.837Z,1.87
2023-03-29T02:24:17.316Z,1.87
2023-03-29T02:27:06.379Z,1.97
2023-03-29T02:29:56.610Z,1.63
2023-03-29T02:32:54.187Z,1.80
2023-03-29T02:35:51.136Z,1.97
2023-03-29T02:38:42.073Z,2.13
2023-03-29T02:41:31.157Z,1.60
2023-03-29T02:44:25.662Z,1.90
2023-03-29T02:47:21.817Z,1.60
2023-03-29T02:50:11.330Z,1.57
2023-03-29T02:53:05.286Z,1.80
2023-03-29T02:55:56.735Z,1.77
2023-03-29T02:58:45.193Z,2.00
2023-03-29T03:01:33.880Z,1.53
2023-03-29T03:04:23.372Z,1.97
2023-03-29T03:07:11.953Z,2.20
2023-03-29T03:10:00.956Z,1.90
2023-03-29T03:12:51.011Z,1.70
2023-03-29T03:15:42.760Z,2.70
2023-03-29T03:18:31.389Z,2.17
2023-03-29T03:21:20.052Z,1.60
2023-03-29T03:24:08.849Z,1.83
2023-03-29T03:26:58.052Z,1.60
2023-03-29T03:29:48.585Z,1.80
2023-03-29T03:32:39.954Z,1.70
2023-03-29T03:35:38.599Z,2.03
2023-03-29T03:38:29.343Z,1.70
2023-03-29T03:41:20.089Z,1.73
2023-03-29T03:44:08.724Z,2.00
2023-03-29T03:46:58.780Z,1.60
2023-03-29T03:49:47.594Z,1.70
2023-03-29T03:52:37.638Z,2.00
2023-03-29T03:55:29.974Z,1.80
2023-03-29T03:58:30.295Z,1.73
2023-03-29T04:01:19.611Z,1.80
2023-03-29T04:04:19.827Z,1.67
2023-03-29T04:07:34.327Z,2.53
2023-03-29T04:10:38.596Z,1.87
2023-03-29T04:13:34.472Z,1.77
2023-03-29T04:16:40.031Z,1.70
2023-03-29T04:19:49.816Z,1.73
2023-03-29T04:22:38.718Z,1.50
2023-03-29T04:25:27.686Z,1.93
2023-03-29T04:28:45.205Z,1.70
2023-03-29T04:31:49.578Z,1.70
2023-03-29T04:34:58.202Z,1.70
2023-03-29T04:37:48.287Z,1.57
2023-03-29T04:40:39.062Z,1.87
2023-03-29T04:43:34.444Z,1.50
2023-03-29T04:46:33.396Z,1.80
2023-03-29T04:49:41.539Z,1.93
2023-03-29T04:52:36.925Z,2.40
2023-03-29T04:55:26.782Z,1.70
2023-03-29T04:58:27.142Z,1.80
2023-03-29T05:01:18.913Z,1.60
2023-03-29T05:04:15.035Z,1.63
2023-03-29T05:07:17.883Z,1.60
2023-03-29T05:10:09.838Z,1.90
2023-03-29T05:12:58.321Z,1.73
2023-03-29T05:15:47.521Z,2.50
2023-03-29T05:18:36.233Z,1.80
2023-03-29T05:21:27.747Z,1.73
2023-03-29T05:24:18.880Z,1.90
2023-03-29T05:27:22.740Z,2.30
2023-03-29T05:30:22.340Z,2.07
2023-03-29T05:33:20.846Z,2.17
2023-03-29T05:36:13.437Z,2.87
2023-03-29T05:39:07.333Z,2.27
2023-03-29T05:41:56.976Z,2.40
2023-03-29T05:44:54.559Z,2.23
2023-03-29T05:47:43.106Z,2.30
2023-03-29T05:50:31.851Z,2.33
2023-03-29T05:53:25.432Z,2.40
2023-03-29T05:56:15.959Z,1.97
2023-03-29T05:59:04.884Z,2.30
2023-03-29T06:01:54.759Z,2.20
2023-03-29T06:04:43.615Z,2.20
2023-03-29T06:07:51.988Z,1.77
2023-03-29T06:11:01.829Z,2.13
2023-03-29T06:14:13.522Z,1.97
2023-03-29T06:17:08.654Z,2.00
2023-03-29T06:19:57.797Z,2.60
2023-03-29T06:22:48.355Z,2.50
2023-03-29T06:25:37.033Z,2.40
2023-03-29T06:28:26.719Z,2.10
2023-03-29T06:31:15.566Z,2.00
2023-03-29T06:34:06.610Z,1.93
2023-03-29T06:37:14.362Z,2.10
2023-03-29T06:40:06.315Z,2.20
2023-03-29T06:43:03.456Z,1.90
2023-03-29T06:46:14.368Z,2.20
2023-03-29T06:49:18.541Z,1.93
2023-03-29T06:52:20.625Z,1.77
2023-03-29T06:55:11.834Z,2.10
2023-03-29T06:58:02.715Z,1.93
2023-03-29T07:00:51.676Z,2.00
2023-03-29T07:03:49.233Z,2.00
2023-03-29T07:06:48.441Z,2.33
2023-03-29T07:09:39.889Z,2.33
2023-03-29T07:12:52.768Z,2.00
2023-03-29T07:15:42.398Z,2.10
2023-03-29T07:18:41.469Z,1.83
2023-03-29T07:21:30.938Z,2.43
2023-03-29T07:24:21.318Z,2.17
2023-03-29T07:27:10.859Z,2.00
2023-03-29T07:29:59.380Z,2.23
2023-03-29T07:32:48.347Z,2.50
2023-03-29T07:35:48.078Z,2.00
2023-03-29T07:38:37.818Z,2.53
2023-03-29T07:41:33.861Z,2.40
2023-03-29T07:44:29.451Z,3.10
2023-03-29T07:47:17.949Z,2.67
2023-03-29T07:50:08.527Z,2.27
2023-03-29T07:52:57.873Z,2.20
2023-03-29T07:55:49.072Z,2.23
2023-03-29T07:59:11.558Z,2.60
2023-03-29T08:02:01.643Z,2.50
2023-03-29T08:04:56.802Z,2.63
2023-03-29T08:08:04.580Z,2.27
2023-03-29T08:11:06.354Z,2.63
2023-03-29T08:14:05.082Z,2.60
2023-03-29T08:17:13.649Z,2.07
2023-03-29T08:20:12.679Z,3.00
2023-03-29T08:23:04.637Z,2.60
2023-03-29T08:26:17.089Z,2.73
2023-03-29T08:29:05.604Z,2.57
2023-03-29T08:31:56.270Z,2.73
2023-03-29T08:34:46.888Z,2.67
2023-03-29T08:37:58.475Z,2.63
2023-03-29T08:40:50.084Z,2.35
2023-03-29T08:44:04.168Z,2.20
2023-03-29T08:47:24.063Z,1.90
2023-03-29T08:50:15.787Z,2.40
2023-03-29T08:53:18.457Z,2.88
2023-03-29T08:56:33.555Z,3.03
2023-03-29T08:59:45.145Z,2.63
2023-03-29T09:02:36.600Z,3.08
2023-03-29T09:05:36.246Z,2.90
2023-03-29T09:08:48.982Z,2.40
2023-03-29T09:11:58.507Z,2.40
2023-03-29T09:15:08.458Z,2.53
2023-03-29T09:18:12.654Z,2.25
2023-03-29T09:21:17.234Z,2.50
2023-03-29T09:24:56.344Z,2.50
2023-03-29T09:27:52.484Z,2.97
2023-03-29T09:30:57.514Z,2.75
2023-03-29T09:33:53.258Z,2.17
2023-03-29T09:36:53.625Z,2.60
2023-03-29T09:39:42.469Z,2.13
2023-03-29T09:42:35.000Z,2.55
2023-03-29T09:45:24.190Z,2.45
2023-03-29T09:48:16.583Z,2.40
2023-03-29T09:51:13.871Z,2.03
2023-03-29T09:54:03.961Z,2.03
2023-03-29T09:57:20.553Z,2.92
2023-03-29T10:00:11.036Z,2.80
2023-03-29T10:03:02.657Z,2.30
2023-03-29T10:06:05.176Z,2.88
2023-03-29T10:08:57.748Z,2.55
2023-03-29T10:11:56.721Z,3.00
2023-03-29T10:14:51.529Z,3.33
2023-03-29T10:17:43.396Z,2.92
2023-03-29T10:20:36.216Z,2.53
2023-03-29T10:23:24.703Z,2.97
2023-03-29T10:26:28.342Z,3.72
2023-03-29T10:29:18.322Z,3.17
2023-03-29T10:32:17.359Z,3.42
2023-03-29T10:35:16.336Z,3.25
2023-03-29T10:38:11.053Z,3.20
2023-03-29T10:41:07.985Z,5.22
2023-03-29T10:43:56.628Z,3.95
2023-03-29T10:46:46.499Z,4.55
2023-03-29T10:49:42.592Z,4.40
2023-03-29T10:52:31.429Z,3.88
2023-03-29T10:55:23.177Z,4.03
2023-03-29T10:58:31.885Z,4.40
2023-03-29T11:01:31.635Z,2.97
2023-03-29T11:04:35.315Z,3.10
2023-03-29T11:07:35.025Z,3.10
2023-03-29T11:10:42.374Z,2.72
2023-03-29T11:13:42.876Z,3.88
2023-03-29T11:16:43.240Z,2.90
2023-03-29T11:20:04.424Z,3.00
2023-03-29T11:23:08.250Z,4.03
2023-03-29T11:26:14.024Z,2.53
2023-03-29T11:29:10.986Z,4.15
2023-03-29T11:32:15.799Z,3.80
2023-03-29T11:35:27.146Z,4.70
2023-03-29T11:38:35.184Z,4.38
2023-03-29T11:41:48.667Z,3.17
2023-03-29T11:45:06.016Z,2.92
2023-03-29T11:51:19.924Z,3.42
2023-03-29T11:54:27.027Z,2.90
2023-03-29T11:57:27.273Z,3.35
2023-03-29T12:00:24.100Z,2.97
2023-03-29T12:03:49.255Z,2.95
2023-03-29T12:07:09.966Z,2.53
2023-03-29T12:10:12.147Z,2.90
2023-03-29T12:13:41.382Z,2.85
2023-03-29T12:17:13.692Z,2.88
2023-03-29T12:20:21.318Z,2.70
2023-03-29T12:23:17.607Z,2.50
2023-03-29T12:26:20.523Z,2.50
2023-03-29T12:29:29.690Z,2.85
2023-03-29T12:32:42.948Z,3.30
2023-03-29T12:36:24.805Z,2.85
2023-03-29T12:39:31.327Z,2.78
2023-03-29T12:42:47.843Z,2.90
2023-03-29T12:46:02.097Z,3.28
2023-03-29T12:48:57.082Z,3.17
2023-03-29T12:51:45.889Z,2.97
2023-03-29T12:54:38.893Z,3.15
2023-03-29T12:57:50.038Z,2.83
2023-03-29T13:00:48.028Z,3.08
2023-03-29T13:03:49.273Z,2.75
2023-03-29T13:07:03.173Z,3.30
2023-03-29T13:09:56.504Z,3.22
2023-03-29T13:12:47.312Z,3.20
2023-03-29T13:15:38.445Z,2.95
2023-03-29T13:18:49.332Z,2.88
2023-03-29T13:21:55.702Z,2.90
2023-03-29T13:25:10.345Z,3.30
2023-03-29T13:28:12.310Z,3.20
2023-03-29T13:31:08.679Z,3.13
2023-03-29T13:34:59.903Z,3.28
2023-03-29T13:38:06.988Z,3.58
2023-03-29T13:41:04.056Z,3.78
2023-03-29T13:48:49.311Z,3.28
2023-03-29T13:52:34.837Z,3.78
2023-03-29T13:55:54.191Z,3.47
2023-03-29T13:58:49.158Z,3.15
2023-03-29T14:01:55.836Z,3.85
2023-03-29T14:04:50.961Z,3.50
2023-03-29T14:07:45.101Z,3.53
2023-03-29T14:10:43.671Z,3.42
2023-03-29T14:13:32.588Z,3.13
2023-03-29T14:16:23.265Z,3.40
2023-03-29T14:19:18.873Z,4.00
2023-03-29T14:22:15.853Z,3.80
2023-03-29T14:25:15.408Z,3.03
2023-03-29T14:28:50.751Z,3.28
2023-03-29T14:31:43.351Z,3.88
2023-03-29T14:34:34.978Z,3.45
2023-03-29T14:37:28.587Z,3.75
2023-03-29T14:40:21.908Z,3.05
2023-03-29T14:43:11.123Z,3.45
2023-03-29T14:46:03.491Z,3.47
2023-03-29T14:48:53.914Z,2.95
2023-03-29T14:51:42.571Z,2.90
2023-03-29T14:54:36.104Z,3.38
2023-03-29T14:57:28.399Z,3.42
2023-03-29T15:00:30.058Z,3.20
2023-03-29T15:03:22.743Z,3.42
2023-03-29T15:06:14.104Z,3.00
2023-03-29T15:09:06.727Z,3.30
2023-03-29T15:12:00.580Z,3.03
2023-03-29T15:14:52.295Z,3.08
2023-03-29T15:17:50.853Z,3.33
2023-03-29T15:20:42.358Z,3.05
2023-03-29T15:23:39.498Z,3.10
2023-03-29T15:26:36.677Z,3.22
2023-03-29T15:29:25.948Z,2.80
2023-03-29T15:32:24.133Z,3.40
2023-03-29T15:35:24.411Z,2.83
2023-03-29T15:38:14.128Z,3.10
2023-03-29T15:41:05.074Z,3.22
2023-03-29T15:43:53.735Z,3.00
2023-03-29T15:46:42.249Z,3.28
2023-03-29T15:49:30.812Z,2.85
2023-03-29T15:52:19.231Z,2.58
2023-03-29T15:55:09.480Z,2.60
2023-03-29T15:57:59.562Z,2.65
2023-03-29T16:00:54.300Z,2.70
2023-03-29T16:03:46.273Z,2.58
2023-03-29T16:06:36.497Z,2.45
2023-03-29T16:09:27.249Z,2.40
2023-03-29T16:12:16.141Z,2.30
2023-03-29T16:15:16.216Z,2.20
2023-03-29T16:18:04.972Z,2.45
2023-03-29T16:20:53.381Z,2.00
2023-03-29T16:23:42.895Z,2.17
2023-03-29T16:26:32.562Z,2.35
2023-03-29T16:29:21.186Z,2.88
2023-03-29T16:32:11.978Z,2.30
2023-03-29T16:35:00.559Z,2.22
2023-03-29T16:37:48.920Z,2.60
2023-03-29T16:40:38.313Z,2.20
2023-03-29T16:43:26.762Z,2.30
2023-03-29T16:46:15.593Z,2.30
2023-03-29T16:49:08.026Z,2.00
2023-03-29T16:51:57.081Z,2.20
2023-03-29T16:54:45.610Z,1.98
2023-03-29T16:57:34.335Z,2.40
2023-03-29T17:00:23.506Z,2.10
2023-03-29T17:03:11.901Z,1.80
2023-03-29T17:06:03.414Z,2.13
2023-03-29T17:08:51.944Z,1.85
2023-03-29T17:11:41.332Z,1.58
2023-03-29T17:14:29.795Z,2.20
2023-03-29T17:17:18.330Z,1.75
2023-03-29T17:20:11.761Z,1.70
2023-03-29T17:23:01.618Z,2.20
2023-03-29T17:25:50.561Z,1.92
2023-03-29T17:28:39.004Z,1.95
2023-03-29T17:31:27.676Z,2.47
2023-03-29T17:34:17.228Z,2.50
2023-03-29T17:37:05.631Z,2.53
2023-03-29T17:39:55.588Z,2.75
2023-03-29T17:42:46.362Z,2.35
2023-03-29T17:45:35.570Z,2.35
2023-03-29T17:48:25.618Z,2.50
2023-03-29T17:51:14.140Z,2.72
2023-03-29T17:54:03.893Z,2.60
2023-03-29T17:56:53.717Z,2.38
2023-03-29T17:59:42.308Z,2.50
2023-03-29T18:02:30.916Z,2.65
2023-03-29T18:05:19.666Z,2.42
2023-03-29T18:08:08.934Z,2.25
2023-03-29T18:11:06.684Z,2.67
2023-03-29T18:14:00.639Z,2.60
2023-03-29T18:16:49.312Z,2.55
2023-03-29T18:19:37.871Z,2.90
2023-03-29T18:22:26.634Z,3.00
2023-03-29T18:25:18.226Z,2.30
2023-03-29T18:28:06.962Z,2.35
2023-03-29T18:30:56.843Z,2.28
2023-03-29T18:33:45.442Z,2.67
2023-03-29T18:36:34.456Z,2.00
2023-03-29T18:39:23.045Z,2.58
2023-03-29T18:42:12.431Z,2.50
2023-03-29T18:45:01.236Z,2.08
2023-03-29T18:47:52.395Z,2.28
2023-03-29T18:50:44.699Z,1.90
2023-03-29T18:53:34.653Z,2.30
2023-03-29T18:56:23.991Z,2.03
2023-03-29T18:59:12.626Z,2.03
2023-03-29T19:02:02.683Z,1.80
2023-03-29T19:04:52.597Z,1.77
2023-03-29T19:07:41.396Z,2.35
2023-03-29T19:10:29.882Z,3.58
2023-03-29T19:13:18.661Z,2.58
2023-03-29T19:16:08.148Z,2.25
2023-03-29T19:18:57.180Z,2.33
2023-03-29T19:21:48.012Z,1.80
2023-03-29T19:24:36.837Z,2.25
2023-03-29T19:27:25.364Z,2.13
2023-03-29T19:30:15.239Z,2.00
2023-03-29T19:33:03.770Z,2.35
2023-03-29T19:35:53.000Z,2.35
2023-03-29T19:38:44.856Z,1.95
2023-03-29T19:41:46.733Z,2.17
2023-03-29T19:44:38.218Z,2.35
2023-03-29T19:47:27.029Z,2.50
2023-03-29T19:50:15.782Z,2.00
2023-03-29T19:53:04.797Z,2.17
2023-03-29T19:55:54.955Z,2.45
2023-03-29T19:58:43.874Z,2.35
2023-03-29T20:01:33.634Z,2.25
2023-03-29T20:04:24.586Z,2.22
2023-03-29T20:07:13.782Z,2.30
2023-03-29T20:10:02.500Z,1.95
2023-03-29T20:12:52.960Z,2.00
2023-03-29T20:15:41.474Z,1.90
2023-03-29T20:18:29.994Z,2.00
2023-03-29T20:21:18.779Z,1.98
2023-03-29T20:24:09.110Z,1.75
2023-03-29T20:26:57.874Z,1.90
2023-03-29T20:29:47.766Z,1.60
2023-03-29T20:32:36.641Z,2.10
2023-03-29T20:35:26.026Z,1.85
2023-03-29T20:38:17.208Z,1.67
2023-03-29T20:41:08.923Z,2.00
2023-03-29T20:43:59.426Z,2.10
2023-03-29T20:47:02.366Z,1.77
2023-03-29T20:49:54.379Z,1.70
2023-03-29T20:52:43.223Z,1.48
2023-03-29T20:55:33.174Z,1.63
2023-03-29T20:58:21.980Z,1.80
2023-03-29T21:01:12.310Z,1.65
2023-03-29T21:04:02.652Z,1.60
2023-03-29T21:08:19.112Z,1.55
2023-03-29T21:11:22.124Z,1.80
2023-03-29T21:14:14.736Z,2.00
2023-03-29T21:17:03.404Z,1.85
2023-03-29T21:19:53.436Z,1.90
2023-03-29T21:22:44.159Z,1.60
2023-03-29T21:25:32.823Z,1.85
2023-03-29T21:28:21.579Z,1.83
2023-03-29T21:31:10.757Z,1.80
2023-03-29T21:34:12.020Z,1.90
2023-03-29T21:37:15.396Z,1.90
2023-03-29T21:40:13.663Z,1.85
2023-03-29T21:43:02.271Z,1.73
2023-03-29T21:45:51.648Z,2.00
2023-03-29T21:48:52.281Z,2.03
2023-03-29T21:52:06.444Z,1.95
2023-03-29T21:54:56.607Z,1.70
2023-03-29T21:57:45.788Z,2.08
2023-03-29T22:00:40.594Z,1.98
2023-03-29T22:03:32.115Z,1.70
2023-03-29T22:06:23.555Z,2.05
2023-03-29T22:09:49.951Z,2.35
2023-03-29T22:12:41.420Z,1.90
2023-03-29T22:15:35.480Z,1.77
2023-03-29T22:18:24.035Z,1.80
2023-03-29T22:21:15.446Z,1.30
2023-03-29T22:24:04.538Z,1.58
2023-03-29T22:26:53.393Z,2.25
2023-03-29T22:29:43.325Z,2.10
2023-03-29T22:32:39.091Z,1.88
2023-03-29T22:35:29.080Z,1.70
2023-03-29T22:38:17.717Z,1.67
2023-03-29T22:41:06.658Z,1.70
2023-03-29T22:44:04.265Z,1.75
2023-03-29T22:46:56.114Z,1.88
2023-03-29T22:49:44.918Z,1.73
2023-03-29T22:52:33.643Z,1.60
2023-03-29T22:55:22.289Z,1.70
2023-03-29T22:58:11.142Z,1.90
2023-03-29T23:01:02.067Z,1.80
2023-03-29T23:03:52.506Z,1.55
2023-03-29T23:07:12.737Z,2.00
2023-03-29T23:10:09.967Z,1.85
2023-03-29T23:13:08.590Z,1.65
2023-03-29T23:16:00.055Z,1.67
2023-03-29T23:18:49.260Z,1.80
2023-03-29T23:21:39.593Z,1.92
2023-03-29T23:24:30.354Z,1.60
2023-03-29T23:27:19.600Z,1.83
2023-03-29T23:30:10.780Z,1.73
2023-03-29T23:33:00.077Z,1.65
2023-03-29T23:35:48.962Z,1.60
2023-03-29T23:38:40.449Z,1.63
2023-03-29T23:41:30.481Z,1.98
2023-03-29T23:44:19.295Z,1.85
2023-03-29T23:47:09.187Z,1.50
2023-03-29T23:49:57.887Z,1.80
2023-03-29T23:52:47.129Z,1.33
2023-03-29T23:55:51.144Z,1.50
2023-03-29T23:58:39.964Z,1.60
